createdAt,value
2017-12-14T00:00:45.811Z,38.31
2017-12-14T00:01:45.682Z,38.89
2017-12-14T00:02:45.720Z,37.46
2017-12-14T00:03:45.632Z,37.65
2017-12-14T00:04:45.628Z,35.38
2017-12-14T00:05:45.575Z,37.37
2017-12-14T00:06:45.643Z,40.88
2017-12-14T00:07:45.520Z,40.02
2017-12-14T00:08:45.553Z,38.22
2017-12-14T00:09:45.461Z,39.36
2017-12-14T00:10:45.462Z,36.80
2017-12-14T00:11:45.409Z,36.04
2017-12-14T00:12:45.475Z,38.60
2017-12-14T00:13:45.354Z,39.73
2017-12-14T00:14:45.383Z,38.22
2017-12-14T00:15:45.296Z,37.27
2017-12-14T00:16:45.293Z,37.27
2017-12-14T00:17:45.246Z,40.12
2017-12-14T00:18:45.218Z,38.79
2017-12-14T00:19:45.189Z,40.31
2017-12-14T00:20:45.214Z,38.69
2017-12-14T00:21:45.133Z,41.63
2017-12-14T00:22:45.128Z,43.05
2017-12-14T00:23:45.076Z,41.35
2017-12-14T00:24:45.139Z,39.73
2017-12-14T00:25:45.024Z,40.31
2017-12-14T00:26:45.048Z,40.59
2017-12-14T00:27:44.966Z,39.36
2017-12-14T00:28:44.958Z,39.26
2017-12-14T00:29:44.912Z,38.50
2017-12-14T00:30:44.970Z,39.83
2017-12-14T00:31:44.855Z,40.02
2017-12-14T00:32:44.880Z,38.22
2017-12-14T00:33:44.806Z,39.83
2017-12-14T00:34:44.791Z,37.93
2017-12-14T00:35:44.744Z,37.93
2017-12-14T00:36:44.801Z,37.55
2017-12-14T00:51:49.814Z,44.48
2017-12-14T00:52:49.753Z,46.85
2017-12-14T00:54:42.665Z,45.81
2017-12-14T00:55:42.603Z,42.68
2017-12-14T00:57:35.556Z,40.40
2017-12-14T00:58:35.453Z,44.38
2017-12-14T01:00:28.357Z,43.05
2017-12-14T01:01:28.364Z,50.07
2017-12-14T01:03:21.256Z,46.75
2017-12-14T01:04:21.149Z,50.07
2017-12-14T01:06:14.067Z,47.32
2017-12-14T01:07:14.001Z,48.36
2017-12-14T01:09:06.892Z,53.77
2017-12-14T01:10:06.853Z,51.85
2017-12-14T01:12:00.834Z,53.49
2017-12-14T01:12:59.706Z,53.49
2017-12-14T01:14:52.657Z,52.45
2017-12-14T01:15:52.557Z,54.63
2017-12-14T01:17:45.506Z,57.25
2017-12-14T01:18:45.407Z,55.83
2017-12-14T01:20:38.358Z,51.37
2017-12-14T01:21:38.251Z,52.23
2017-12-14T01:23:31.171Z,55.45
2017-12-14T01:24:31.107Z,53.75
2017-12-14T01:26:24.072Z,51.37
2017-12-14T01:27:23.956Z,53.56
2017-12-14T01:29:16.908Z,53.37
2017-12-14T01:30:16.807Z,51.18
2017-12-14T01:32:09.793Z,54.32
2017-12-14T01:33:09.658Z,52.14
2017-12-14T01:34:09.728Z,52.98
2017-12-14T01:35:09.602Z,52.14
2017-12-14T01:36:09.636Z,51.28
2017-12-14T01:37:09.548Z,51.37
2017-12-14T01:38:09.520Z,54.79
2017-12-14T01:39:09.490Z,51.85
2017-12-14T01:40:09.558Z,54.13
2017-12-14T01:41:09.438Z,53.37
2017-12-14T01:42:09.472Z,58.39
2017-12-14T01:43:09.375Z,54.60
2017-12-14T01:44:09.350Z,60.38
2017-12-14T01:45:09.329Z,52.42
2017-12-14T01:46:09.391Z,53.94
2017-12-14T01:47:09.270Z,52.14
2017-12-14T01:48:09.303Z,56.97
2017-12-14T01:49:09.225Z,56.30
2017-12-14T01:50:09.208Z,57.54
2017-12-14T01:51:09.159Z,54.69
2017-12-14T01:52:09.220Z,55.07
2017-12-14T01:53:09.128Z,55.45
2017-12-14T01:54:09.090Z,52.33
2017-12-14T01:55:09.141Z,52.04
2017-12-14T01:56:09.019Z,51.09
2017-12-14T01:57:09.051Z,59.05
2017-12-14T01:58:08.979Z,55.83
2017-12-14T01:59:08.960Z,57.64
2017-12-14T02:00:08.911Z,58.29
2017-12-14T02:01:08.970Z,55.83
2017-12-14T02:02:08.855Z,51.66
2017-12-14T02:03:08.884Z,58.48
2017-12-14T02:04:08.806Z,54.22
2017-12-14T02:05:08.792Z,53.18
2017-12-14T02:06:08.800Z,54.13
2017-12-14T02:07:08.720Z,53.94
2017-12-14T02:08:08.709Z,53.65
2017-12-14T02:09:08.663Z,50.52
2017-12-14T02:10:08.721Z,51.85
2017-12-14T02:11:08.606Z,52.70
2017-12-14T02:12:08.583Z,53.27
2017-12-14T02:13:08.633Z,53.08
2017-12-14T02:14:08.531Z,50.62
2017-12-14T02:15:08.546Z,53.75
2017-12-14T02:16:08.481Z,51.85
2017-12-14T02:17:08.558Z,48.82
2017-12-14T02:18:08.417Z,47.58
2017-12-14T02:19:08.468Z,49.86
2017-12-14T02:20:08.373Z,51.57
2017-12-14T02:21:08.336Z,52.61
2017-12-14T02:22:08.382Z,52.98
2017-12-14T02:23:08.285Z,49.48
2017-12-14T02:24:08.295Z,51.66
2017-12-14T02:25:08.223Z,53.18
2017-12-14T02:26:08.195Z,51.57
2017-12-14T02:27:08.171Z,53.75
2017-12-14T02:28:08.212Z,54.32
2017-12-14T02:29:08.117Z,50.99
2017-12-14T02:30:08.137Z,50.52
2017-12-14T02:31:08.060Z,49.57
2017-12-14T02:32:08.138Z,49.76
2017-12-14T02:33:08.006Z,50.43
2017-12-14T02:34:08.050Z,49.67
2017-12-14T02:35:07.948Z,49.67
2017-12-14T02:36:07.925Z,48.63
2017-12-14T02:37:07.963Z,47.58
2017-12-14T02:38:07.861Z,49.95
2017-12-14T02:39:07.883Z,48.44
2017-12-14T02:40:07.814Z,48.34
2017-12-14T02:41:07.780Z,47.39
2017-12-14T02:42:08.815Z,47.39
2017-12-14T02:43:07.751Z,49.38
2017-12-14T02:44:07.807Z,48.72
2017-12-14T02:45:07.672Z,49.86
2017-12-14T02:46:07.714Z,47.49
2017-12-14T02:47:07.615Z,49.95
2017-12-14T02:48:07.622Z,49.76
2017-12-14T02:49:09.573Z,48.15
2017-12-14T02:50:07.532Z,49.86
2017-12-14T02:51:07.544Z,50.05
2017-12-14T02:52:07.482Z,48.54
2017-12-14T02:53:07.556Z,48.63
2017-12-14T02:54:07.422Z,46.54
2017-12-14T02:55:07.400Z,46.35
2017-12-14T02:56:07.466Z,47.96
2017-12-14T02:57:07.343Z,47.30
2017-12-14T02:58:07.374Z,47.58
2017-12-14T02:59:07.286Z,46.35
2017-12-14T03:00:07.288Z,46.16
2017-12-14T03:01:07.235Z,49.48
2017-12-14T03:02:08.322Z,47.96
2017-12-14T03:03:07.176Z,50.52
2017-12-14T03:04:07.205Z,50.24
2017-12-14T03:05:07.127Z,48.63
2017-12-14T03:06:07.096Z,49.86
2017-12-14T03:07:07.071Z,48.72
2017-12-14T03:08:07.127Z,47.39
2017-12-14T03:09:07.020Z,45.40
2017-12-14T03:10:07.038Z,45.31
2017-12-14T03:11:06.959Z,44.46
2017-12-14T03:12:06.948Z,42.75
2017-12-14T03:13:06.910Z,41.61
2017-12-14T03:14:06.879Z,40.57
2017-12-14T03:15:06.852Z,40.76
2017-12-14T03:16:06.931Z,39.53
2017-12-14T03:17:06.795Z,39.34
2017-12-14T03:18:06.887Z,41.35
2017-12-14T03:19:06.745Z,42.47
2017-12-14T03:20:06.715Z,41.99
2017-12-14T03:21:06.803Z,42.18
2017-12-14T03:22:06.664Z,41.99
2017-12-14T03:23:06.715Z,44.55
2017-12-14T03:24:06.607Z,43.41
2017-12-14T03:25:06.619Z,43.32
2017-12-14T03:26:06.554Z,44.55
2017-12-14T03:27:06.632Z,46.64
2017-12-14T03:28:06.497Z,46.73
2017-12-14T03:29:06.542Z,45.31
2017-12-14T03:30:06.445Z,49.95
2017-12-14T03:31:06.452Z,49.67
2017-12-14T03:32:07.482Z,49.86
2017-12-14T03:33:06.358Z,47.30
2017-12-14T03:34:06.368Z,49.95
2017-12-14T03:35:06.303Z,49.08
2017-12-14T03:36:06.381Z,49.93
2017-12-14T03:37:06.248Z,50.21
2017-12-14T03:38:06.220Z,50.31
2017-12-14T03:39:06.189Z,47.28
2017-12-14T03:40:06.199Z,46.23
2017-12-14T03:41:06.134Z,45.93
2017-12-14T03:42:07.131Z,44.89
2017-12-14T03:43:06.079Z,44.41
2017-12-14T03:44:06.121Z,44.13
2017-12-14T03:45:06.028Z,43.65
2017-12-14T03:46:06.034Z,42.71
2017-12-14T03:47:05.973Z,42.99
2017-12-14T03:48:06.055Z,41.95
2017-12-14T03:49:05.914Z,40.51
2017-12-14T03:50:05.954Z,40.13
2017-12-14T03:51:05.858Z,39.58
2017-12-14T03:52:05.863Z,38.92
2017-12-14T03:53:05.796Z,38.24
2017-12-14T03:54:05.877Z,37.88
2017-12-14T03:55:05.781Z,37.97
2017-12-14T03:56:05.717Z,37.67
2017-12-14T03:57:05.797Z,37.12
2017-12-14T03:58:05.657Z,37.59
2017-12-14T03:59:05.702Z,37.02
2017-12-14T04:00:05.605Z,37.10
2017-12-14T04:01:05.574Z,37.10
2017-12-14T04:02:05.619Z,37.01
2017-12-14T04:03:05.517Z,36.54
2017-12-14T04:04:05.528Z,36.91
2017-12-14T04:05:05.462Z,36.82
2017-12-14T04:06:05.430Z,36.54
2017-12-14T04:07:05.406Z,36.15
2017-12-14T04:08:05.453Z,36.25
2017-12-14T04:09:05.349Z,36.06
2017-12-14T04:10:05.360Z,35.96
2017-12-14T04:11:05.337Z,36.15
2017-12-14T04:12:05.374Z,37.10
2017-12-14T04:13:05.251Z,36.91
2017-12-14T04:14:05.285Z,36.54
2017-12-14T04:15:05.177Z,36.54
2017-12-14T04:16:05.191Z,36.44
2017-12-14T04:17:05.128Z,36.44
2017-12-14T04:18:05.094Z,36.35
2017-12-14T04:19:05.067Z,35.96
2017-12-14T04:20:05.116Z,36.06
2017-12-14T04:21:05.012Z,36.63
2017-12-14T04:22:05.024Z,36.35
2017-12-14T04:23:04.956Z,37.01
2017-12-14T04:24:04.920Z,36.55
2017-12-14T04:25:04.895Z,36.44
2017-12-14T04:26:04.946Z,37.29
2017-12-14T04:27:04.837Z,37.10
2017-12-14T04:28:04.857Z,36.65
2017-12-14T04:29:04.781Z,36.46
2017-12-14T04:30:04.747Z,36.55
2017-12-14T04:31:04.772Z,36.17
2017-12-14T04:32:04.693Z,35.98
2017-12-14T04:33:04.682Z,36.27
2017-12-14T04:34:04.633Z,36.65
2017-12-14T04:35:04.695Z,36.55
2017-12-14T04:36:04.584Z,36.83
2017-12-14T04:37:04.607Z,35.98
2017-12-14T04:38:04.524Z,36.46
2017-12-14T04:39:04.520Z,35.89
2017-12-14T04:40:04.477Z,37.02
2017-12-14T04:41:04.531Z,37.78
2017-12-14T04:42:04.407Z,39.29
2017-12-14T04:43:04.437Z,37.88
2017-12-14T04:44:04.354Z,36.55
2017-12-14T04:45:04.347Z,36.93
2017-12-14T04:46:04.298Z,36.55
2017-12-14T04:47:04.359Z,36.27
2017-12-14T04:48:04.241Z,37.12
2017-12-14T04:49:04.270Z,36.27
2017-12-14T04:50:04.184Z,36.46
2017-12-14T04:51:04.179Z,37.69
2017-12-14T04:52:04.128Z,37.88
2017-12-14T04:53:04.094Z,38.45
2017-12-14T04:54:04.070Z,37.31
2017-12-14T04:55:04.101Z,36.93
2017-12-14T04:56:04.017Z,36.65
2017-12-14T04:57:04.013Z,38.07
2017-12-14T04:58:03.962Z,37.88
2017-12-14T04:59:03.928Z,37.21
2017-12-14T05:00:03.901Z,37.12
2017-12-14T05:01:03.937Z,36.74
2017-12-14T05:02:03.841Z,36.65
2017-12-14T05:03:03.844Z,38.73
2017-12-14T05:04:03.788Z,37.50
2017-12-14T05:05:03.757Z,39.77
2017-12-14T05:06:03.757Z,38.16
2017-12-14T05:07:03.702Z,39.39
2017-12-14T05:08:03.773Z,38.16
2017-12-14T05:09:03.646Z,37.78
2017-12-14T05:10:03.682Z,37.12
2017-12-14T05:11:03.589Z,37.02
2017-12-14T05:12:03.596Z,37.69
2017-12-14T05:13:03.530Z,39.39
2017-12-14T05:14:03.599Z,41.00
2017-12-14T05:15:03.479Z,39.96
2017-12-14T05:16:03.445Z,39.68
2017-12-14T05:17:03.420Z,41.00
2017-12-14T05:18:03.424Z,42.23
2017-12-14T05:19:03.359Z,41.95
2017-12-14T05:20:03.434Z,40.63
2017-12-14T05:21:03.309Z,41.57
2017-12-14T05:22:03.276Z,39.96
2017-12-14T05:23:03.245Z,39.11
2017-12-14T05:24:03.254Z,39.96
2017-12-14T05:25:03.193Z,38.82
2017-12-14T05:26:03.268Z,38.73
2017-12-14T05:27:03.129Z,39.77
2017-12-14T05:28:03.111Z,41.57
2017-12-14T05:29:03.185Z,41.09
2017-12-14T05:30:03.050Z,41.85
2017-12-14T05:31:03.097Z,41.00
2017-12-14T05:32:02.992Z,39.49
2017-12-14T05:33:02.971Z,38.45
2017-12-14T05:34:02.931Z,37.88
2017-12-14T05:35:02.943Z,38.07
2017-12-14T05:36:02.877Z,38.35
2017-12-14T05:37:02.993Z,38.73
2017-12-14T05:38:02.819Z,38.64
2017-12-14T05:39:02.937Z,37.78
2017-12-14T05:40:02.777Z,37.97
2017-12-14T05:41:02.847Z,38.92
2017-12-14T05:42:02.714Z,38.54
2017-12-14T05:43:02.859Z,40.15
2017-12-14T05:44:02.657Z,40.06
2017-12-14T05:45:02.628Z,38.64
2017-12-14T05:46:02.596Z,37.21
2017-12-14T05:47:02.678Z,39.20
2017-12-14T05:48:02.540Z,37.97
2017-12-14T05:49:02.587Z,37.59
2017-12-14T05:50:02.484Z,38.45
2017-12-14T05:51:02.449Z,38.26
2017-12-14T05:52:03.532Z,38.45
2017-12-14T05:53:02.399Z,38.82
2017-12-14T05:54:02.520Z,39.20
2017-12-14T05:55:02.339Z,41.28
2017-12-14T05:56:02.430Z,41.28
2017-12-14T05:57:02.433Z,39.11
2017-12-14T05:58:02.254Z,38.73
2017-12-14T05:59:02.342Z,38.45
2017-12-14T06:00:02.199Z,39.58
2017-12-14T06:01:02.256Z,39.68
2017-12-14T06:02:02.145Z,40.44
2017-12-14T06:03:02.112Z,39.87
2017-12-14T06:04:02.174Z,39.58
2017-12-14T06:05:02.055Z,41.09
2017-12-14T06:06:02.081Z,38.82
2017-12-14T06:07:02.003Z,39.68
2017-12-14T06:08:02.093Z,40.72
2017-12-14T06:09:01.947Z,42.33
2017-12-14T06:10:02.008Z,41.57
2017-12-14T06:11:01.885Z,40.63
2017-12-14T06:12:01.914Z,40.91
2017-12-14T06:13:01.835Z,40.81
2017-12-14T06:14:01.825Z,39.87
2017-12-14T06:15:01.769Z,39.77
2017-12-14T06:16:01.833Z,38.92
2017-12-14T06:17:01.720Z,38.73
2017-12-14T06:18:01.743Z,38.07
2017-12-14T06:19:01.654Z,38.54
2017-12-14T06:20:01.652Z,38.54
2017-12-14T06:21:01.604Z,38.35
2017-12-14T06:22:01.664Z,38.07
2017-12-14T06:23:01.542Z,39.11
2017-12-14T06:24:01.551Z,38.16
2017-12-14T06:25:01.495Z,37.02
2017-12-14T06:26:01.485Z,37.12
2017-12-14T06:27:01.429Z,36.55
2017-12-14T06:28:01.495Z,35.89
2017-12-14T06:29:01.376Z,36.55
2017-12-14T06:30:01.405Z,36.46
2017-12-14T06:31:01.317Z,36.36
2017-12-14T06:32:01.299Z,36.83
2017-12-14T06:33:01.261Z,37.59
2017-12-14T06:34:01.328Z,36.93
2017-12-14T06:35:01.220Z,37.40
2017-12-14T06:36:01.239Z,37.40
2017-12-14T06:37:01.142Z,38.92
2017-12-14T06:38:01.120Z,38.82
2017-12-14T06:39:01.090Z,41.09
2017-12-14T06:40:01.165Z,40.25
2017-12-14T06:41:01.034Z,41.47
2017-12-14T06:42:01.070Z,41.19
2017-12-14T06:43:00.979Z,41.66
2017-12-14T06:44:00.980Z,41.95
2017-12-14T06:45:00.923Z,41.57
2017-12-14T06:46:00.992Z,40.81
2017-12-14T06:47:00.857Z,43.18
2017-12-14T06:48:00.906Z,44.03
2017-12-14T06:49:00.807Z,41.66
2017-12-14T06:50:00.813Z,40.63
2017-12-14T06:51:00.747Z,39.96
2017-12-14T06:52:00.824Z,40.15
2017-12-14T06:53:00.696Z,39.58
2017-12-14T06:54:00.735Z,39.11
2017-12-14T06:55:00.638Z,38.45
2017-12-14T06:56:00.649Z,38.82
2017-12-14T06:57:00.588Z,38.16
2017-12-14T06:58:00.655Z,37.97
2017-12-14T06:59:00.524Z,37.78
2017-12-14T07:00:00.571Z,37.78
2017-12-14T07:01:00.462Z,37.78
2017-12-14T07:02:00.478Z,36.83
2017-12-14T07:03:00.411Z,36.74
2017-12-14T07:04:00.488Z,37.50
2017-12-14T07:05:00.353Z,37.31
2017-12-14T07:06:00.343Z,36.17
2017-12-14T07:07:00.295Z,35.79
2017-12-14T07:08:00.411Z,35.51
2017-12-14T07:09:00.236Z,35.22
2017-12-14T07:10:00.320Z,34.75
2017-12-14T07:11:00.181Z,34.75
2017-12-14T07:12:01.255Z,34.66
2017-12-14T07:13:00.130Z,34.84
2017-12-14T07:14:00.140Z,34.66
2017-12-14T07:15:00.066Z,36.08
2017-12-14T07:16:00.152Z,35.89
2017-12-14T07:17:00.015Z,35.98
2017-12-14T07:18:00.068Z,36.17
2017-12-14T07:18:59.962Z,36.74
2017-12-14T07:19:59.976Z,36.83
2017-12-14T07:20:59.903Z,36.93
2017-12-14T07:21:59.990Z,38.26
2017-12-14T07:22:59.845Z,37.88
2017-12-14T07:23:59.913Z,37.78
2017-12-14T07:24:59.784Z,39.11
2017-12-14T07:25:59.805Z,39.39
2017-12-14T07:26:59.737Z,38.54
2017-12-14T07:27:59.725Z,39.87
2017-12-14T07:28:59.688Z,41.00
2017-12-14T07:29:59.728Z,40.15
2017-12-14T07:30:59.622Z,39.87
2017-12-14T07:31:59.638Z,40.53
2017-12-14T07:32:59.553Z,42.04
2017-12-14T07:33:59.563Z,40.25
2017-12-14T07:34:59.513Z,42.04
2017-12-14T07:35:59.565Z,42.33
2017-12-14T07:36:59.439Z,43.18
2017-12-14T07:37:59.473Z,46.59
2017-12-14T07:38:59.378Z,44.22
2017-12-14T07:39:59.379Z,45.17
2017-12-14T07:40:59.332Z,45.26
2017-12-14T07:42:00.320Z,43.46
2017-12-14T07:42:59.267Z,43.37
2017-12-14T07:43:59.249Z,43.37
2017-12-14T07:44:59.218Z,43.56
2017-12-14T07:45:59.236Z,42.52
2017-12-14T07:46:59.184Z,43.08
2017-12-14T07:47:59.226Z,43.56
2017-12-14T07:48:59.108Z,46.69
2017-12-14T07:49:59.138Z,45.93
2017-12-14T07:50:59.042Z,48.01
2017-12-14T07:51:59.057Z,47.53
2017-12-14T07:52:58.995Z,50.09
2017-12-14T07:53:58.966Z,49.52
2017-12-14T07:54:58.935Z,47.72
2017-12-14T07:55:58.975Z,49.90
2017-12-14T07:56:58.882Z,50.19
2017-12-14T07:57:58.875Z,51.99
2017-12-14T07:58:58.822Z,49.15
2017-12-14T07:59:58.797Z,53.03
2017-12-14T08:00:58.759Z,49.81
2017-12-14T08:01:59.826Z,47.06
2017-12-14T08:02:58.714Z,45.45
2017-12-14T08:03:58.719Z,45.36
2017-12-14T08:04:58.647Z,48.10
2017-12-14T08:05:58.623Z,49.62
2017-12-14T08:06:58.592Z,51.04
2017-12-14T08:07:58.633Z,53.78
2017-12-14T08:08:58.555Z,52.08
2017-12-14T08:09:58.550Z,50.19
2017-12-14T08:10:58.480Z,48.29
2017-12-14T08:11:58.553Z,57.20
2017-12-14T08:12:58.434Z,52.01
2017-12-14T08:13:58.463Z,51.32
2017-12-14T08:14:58.370Z,54.45
2017-12-14T08:15:58.374Z,51.73
2017-12-14T08:16:58.324Z,53.34
2017-12-14T08:17:58.386Z,51.45
2017-12-14T08:18:58.256Z,51.73
2017-12-14T08:19:58.300Z,57.23
2017-12-14T08:20:58.201Z,56.18
2017-12-14T08:21:59.232Z,58.07
2017-12-14T08:22:58.159Z,61.49
2017-12-14T08:23:58.221Z,64.23
2017-12-14T08:24:58.098Z,59.78
2017-12-14T08:25:58.096Z,59.03
2017-12-14T08:26:58.131Z,58.07
2017-12-14T08:27:58.002Z,56.66
2017-12-14T08:28:58.041Z,54.76
2017-12-14T08:29:58.032Z,59.59
2017-12-14T08:30:58.043Z,62.91
2017-12-14T08:31:57.900Z,57.04
2017-12-14T08:32:57.965Z,55.43
2017-12-14T08:33:57.832Z,62.43
2017-12-14T08:34:57.874Z,60.92
2017-12-14T08:35:57.782Z,56.34
2017-12-14T08:36:57.785Z,56.15
2017-12-14T08:37:57.717Z,54.67
2017-12-14T08:38:57.800Z,56.91
2017-12-14T08:39:57.661Z,60.80
2017-12-14T08:40:57.633Z,58.62
2017-12-14T08:41:58.639Z,57.89
2017-12-14T08:42:57.583Z,55.40
2017-12-14T08:43:57.620Z,57.10
2017-12-14T08:44:57.525Z,56.15
2017-12-14T08:45:57.500Z,58.84
2017-12-14T08:46:57.467Z,59.03
2017-12-14T08:47:57.547Z,61.77
2017-12-14T08:48:57.409Z,57.89
2017-12-14T08:49:57.456Z,60.35
2017-12-14T08:50:57.352Z,55.80
2017-12-14T08:51:57.331Z,54.95
2017-12-14T08:52:57.393Z,55.80
2017-12-14T08:53:57.273Z,57.89
2017-12-14T08:54:57.292Z,55.52
2017-12-14T08:55:57.225Z,58.74
2017-12-14T08:56:57.300Z,57.79
2017-12-14T08:57:57.212Z,57.89
2017-12-14T08:58:57.211Z,59.12
2017-12-14T08:59:57.106Z,63.95
2017-12-14T09:00:57.077Z,64.14
2017-12-14T09:01:57.046Z,63.48
2017-12-14T09:02:57.130Z,60.06
2017-12-14T09:03:56.988Z,60.25
2017-12-14T09:04:56.972Z,59.12
2017-12-14T09:05:56.930Z,60.25
2017-12-14T09:06:56.954Z,59.03
2017-12-14T09:07:56.877Z,61.77
2017-12-14T09:08:56.958Z,65.47
2017-12-14T09:09:56.830Z,64.42
2017-12-14T09:10:56.874Z,61.30
2017-12-14T09:19:35.339Z,59.41
2017-12-14T09:20:35.269Z,62.62
2017-12-14T09:22:28.226Z,59.63
2017-12-14T09:23:28.117Z,62.08
2017-12-14T09:25:21.018Z,62.47
2017-12-14T09:26:20.959Z,63.98
2017-12-14T09:28:13.795Z,65.22
2017-12-14T09:29:13.770Z,61.61
2017-12-14T09:31:06.713Z,60.28
2017-12-14T09:32:06.663Z,68.15
2017-12-14T09:33:59.486Z,62.66
2017-12-14T09:34:59.456Z,69.20
2017-12-14T09:36:52.428Z,63.79
2017-12-14T09:37:52.363Z,66.16
2017-12-14T09:39:45.260Z,70.72
2017-12-14T09:40:45.277Z,64.93
2017-12-14T09:42:38.124Z,63.04
2017-12-14T09:43:38.131Z,58.86
2017-12-14T09:45:30.951Z,62.18
2017-12-14T09:46:30.909Z,60.67
2017-12-14T09:48:23.834Z,58.96
2017-12-14T09:49:23.831Z,60.00
2017-12-14T09:51:16.718Z,58.77
2017-12-14T09:52:16.625Z,58.77
2017-12-14T09:54:09.526Z,56.68
2017-12-14T09:55:09.470Z,57.92
2017-12-14T09:57:02.358Z,59.72
2017-12-14T09:58:02.359Z,55.64
2017-12-14T09:59:55.223Z,58.77
2017-12-14T10:00:55.233Z,55.74
2017-12-14T10:02:48.061Z,54.32
2017-12-14T10:03:47.997Z,58.86
2017-12-14T10:05:40.841Z,61.14
2017-12-14T10:06:40.779Z,58.01
2017-12-14T10:08:33.789Z,59.05
2017-12-14T10:09:33.751Z,57.64
2017-12-14T10:11:26.620Z,55.36
2017-12-14T10:12:26.565Z,54.69
2017-12-14T10:14:19.455Z,58.86
2017-12-14T10:15:19.418Z,60.47
2017-12-14T10:17:12.334Z,63.23
2017-12-14T10:18:12.268Z,61.65
2017-12-14T10:20:05.150Z,62.18
2017-12-14T10:21:05.117Z,63.26
2017-12-14T10:22:58.005Z,61.99
2017-12-14T10:23:57.946Z,64.59
2017-12-14T10:25:51.019Z,64.46
2017-12-14T10:26:50.927Z,62.18
2017-12-14T10:28:43.830Z,64.30
2017-12-14T10:29:43.838Z,61.08
2017-12-14T10:31:36.724Z,64.30
2017-12-14T10:32:36.618Z,63.82
2017-12-14T10:34:29.527Z,63.54
2017-12-14T10:35:29.475Z,68.10
2017-12-14T10:37:22.425Z,66.20
2017-12-14T10:38:22.328Z,64.68
2017-12-14T10:40:15.238Z,65.12
2017-12-14T10:41:15.173Z,66.16
2017-12-14T10:43:08.136Z,61.52
2017-12-14T10:44:08.027Z,62.85
2017-12-14T10:46:00.935Z,61.14
2017-12-14T10:47:00.884Z,60.95
2017-12-14T10:48:53.834Z,60.00
2017-12-14T10:49:53.733Z,60.67
2017-12-14T10:51:46.592Z,59.91
2017-12-14T10:52:46.641Z,61.90
2017-12-14T10:54:39.456Z,59.34
2017-12-14T10:55:39.431Z,57.82
2017-12-14T10:57:32.344Z,58.96
2017-12-14T10:58:32.277Z,59.44
2017-12-14T11:00:26.274Z,59.34
2017-12-14T11:01:25.127Z,60.38
2017-12-14T11:03:17.996Z,66.26
2017-12-14T11:04:17.936Z,65.41
2017-12-14T11:06:10.931Z,62.75
2017-12-14T11:07:10.827Z,66.07
2017-12-14T11:09:03.783Z,64.36
2017-12-14T11:10:03.686Z,63.89
2017-12-14T11:11:57.549Z,64.36
2017-12-14T11:12:57.483Z,67.58
2017-12-14T11:14:50.407Z,64.27
2017-12-14T11:15:50.301Z,64.93
2017-12-14T11:17:43.139Z,68.44
2017-12-14T11:18:43.111Z,64.84
2017-12-14T11:20:36.104Z,66.26
2017-12-14T11:21:36.005Z,65.22
2017-12-14T11:23:28.954Z,67.30
2017-12-14T11:24:28.860Z,66.16
2017-12-14T11:26:22.802Z,65.69
2017-12-14T11:27:22.731Z,64.84
2017-12-14T11:29:15.613Z,64.46
2017-12-14T11:30:15.579Z,66.64
2017-12-14T11:32:08.536Z,68.25
2017-12-14T11:33:08.411Z,66.16
2017-12-14T11:35:01.235Z,64.27
2017-12-14T11:36:01.199Z,64.36
2017-12-14T11:37:54.123Z,64.27
2017-12-14T11:38:54.107Z,66.16
2017-12-14T11:40:46.915Z,65.78
2017-12-14T11:41:46.877Z,64.46
2017-12-14T11:43:39.831Z,64.84
2017-12-14T11:44:39.731Z,64.65
2017-12-14T11:46:33.131Z,70.24
2017-12-14T11:47:33.091Z,64.36
2017-12-14T11:49:26.004Z,67.11
2017-12-14T11:50:25.945Z,70.43
2017-12-14T11:52:18.827Z,69.20
2017-12-14T11:53:18.796Z,71.85
2017-12-14T11:55:11.749Z,68.63
2017-12-14T11:56:11.651Z,65.41
2017-12-14T11:58:04.533Z,73.46
2017-12-14T11:59:04.561Z,74.41
2017-12-14T12:00:57.400Z,70.90
2017-12-14T12:01:58.434Z,68.63
2017-12-14T12:03:50.295Z,69.10
2017-12-14T12:04:50.256Z,68.35
2017-12-14T12:06:44.174Z,68.35
2017-12-14T12:07:44.068Z,68.73
2017-12-14T12:09:36.962Z,69.67
2017-12-14T12:10:36.921Z,66.93
2017-12-14T12:12:29.873Z,69.38
2017-12-14T12:13:29.775Z,66.35
2017-12-14T12:15:22.651Z,70.72
2017-12-14T12:16:22.738Z,69.29
2017-12-14T12:18:15.579Z,72.99
2017-12-14T12:19:15.477Z,68.06
2017-12-14T12:21:08.358Z,71.38
2017-12-14T12:22:08.324Z,69.96
2017-12-14T12:24:01.276Z,66.16
2017-12-14T12:25:01.170Z,64.74
2017-12-14T12:26:54.061Z,66.07
2017-12-14T12:27:54.020Z,72.14
2017-12-14T12:29:46.975Z,68.06
2017-12-14T12:30:46.873Z,68.06
2017-12-14T12:32:39.824Z,68.35
2017-12-14T12:33:39.726Z,68.63
2017-12-14T12:35:33.700Z,69.57
2017-12-14T12:36:32.579Z,68.54
2017-12-14T12:38:25.462Z,69.29
2017-12-14T12:39:25.423Z,71.47
2017-12-14T12:41:18.372Z,67.87
2017-12-14T12:42:18.281Z,68.73
2017-12-14T12:44:11.161Z,69.10
2017-12-14T12:45:11.192Z,69.57
2017-12-14T12:47:04.091Z,74.41
2017-12-14T12:48:03.979Z,69.10
2017-12-14T12:49:56.860Z,71.00
2017-12-14T12:50:56.881Z,71.57
2017-12-14T12:52:49.785Z,72.61
2017-12-14T12:53:49.704Z,69.29
2017-12-14T12:55:42.564Z,71.76
2017-12-14T12:56:42.592Z,71.19
2017-12-14T12:58:35.445Z,69.20
2017-12-14T12:59:35.446Z,71.28
2017-12-14T13:01:28.538Z,74.69
2017-12-14T13:02:28.295Z,72.23
2017-12-14T13:04:22.678Z,70.72
2017-12-14T13:05:22.689Z,71.28
2017-12-14T13:07:15.642Z,67.11
2017-12-14T13:08:15.463Z,70.62
2017-12-14T13:10:08.417Z,72.80
2017-12-14T13:11:08.324Z,73.08
2017-12-14T13:13:01.205Z,71.09
2017-12-14T13:14:01.177Z,71.85
2017-12-14T13:15:54.121Z,68.25
2017-12-14T13:16:54.017Z,70.72
2017-12-14T13:18:46.907Z,69.38
2017-12-14T13:19:46.884Z,69.77
2017-12-14T13:21:39.820Z,72.52
2017-12-14T13:22:39.719Z,69.29
2017-12-14T13:24:32.606Z,69.48
2017-12-14T13:25:32.578Z,68.73
2017-12-14T13:27:25.519Z,71.09
2017-12-14T13:28:25.428Z,69.48
2017-12-14T13:30:18.305Z,67.68
2017-12-14T13:31:18.363Z,71.95
2017-12-14T13:33:11.219Z,70.72
2017-12-14T13:34:11.120Z,69.29
2017-12-14T13:36:04.009Z,70.53
2017-12-14T13:37:03.972Z,73.56
2017-12-14T13:38:56.939Z,67.96
2017-12-14T13:39:56.830Z,71.38
2017-12-14T13:41:49.706Z,68.44
2017-12-14T13:42:49.736Z,71.57
2017-12-14T13:44:42.584Z,72.04
2017-12-14T13:45:42.585Z,74.73
2017-12-14T13:47:35.411Z,77.67
2017-12-14T13:48:35.436Z,72.93
2017-12-14T13:50:28.326Z,74.22
2017-12-14T13:51:28.233Z,76.40
2017-12-14T13:53:21.176Z,78.02
2017-12-14T13:54:21.074Z,74.60
2017-12-14T13:56:14.005Z,75.96
2017-12-14T13:57:13.991Z,78.05
2017-12-14T13:59:06.822Z,72.33
2017-12-14T14:00:06.844Z,72.27
2017-12-14T14:01:59.757Z,75.17
2017-12-14T14:02:59.629Z,77.83
2017-12-14T14:04:52.511Z,71.95
2017-12-14T14:05:52.485Z,76.87
2017-12-14T14:07:45.438Z,73.56
2017-12-14T14:08:45.336Z,69.86
2017-12-14T14:10:38.266Z,75.07
2017-12-14T14:11:38.190Z,76.31
2017-12-14T14:13:31.098Z,74.98
2017-12-14T14:14:31.030Z,75.68
2017-12-14T14:16:23.920Z,79.15
2017-12-14T14:17:23.940Z,79.53
2017-12-14T14:19:16.865Z,73.75
2017-12-14T14:20:16.731Z,80.10
2017-12-14T14:22:09.620Z,76.12
2017-12-14T14:23:09.590Z,78.39
2017-12-14T14:25:02.530Z,77.54
2017-12-14T14:26:02.442Z,78.30
2017-12-14T14:27:55.835Z,76.68
2017-12-14T14:28:55.802Z,74.51
2017-12-14T14:30:48.713Z,73.65
2017-12-14T14:31:48.708Z,72.33
2017-12-14T14:33:41.525Z,75.45
2017-12-14T14:34:41.507Z,74.79
2017-12-14T14:36:34.404Z,78.67
2017-12-14T14:37:34.350Z,72.80
2017-12-14T14:39:27.229Z,74.69
2017-12-14T14:40:27.193Z,72.42
2017-12-14T14:42:20.154Z,76.31
2017-12-14T14:43:20.053Z,77.54
2017-12-14T14:45:12.941Z,77.35
2017-12-14T14:46:12.906Z,71.38
2017-12-14T14:48:05.817Z,73.46
2017-12-14T14:49:05.762Z,76.68
2017-12-14T14:50:58.701Z,76.21
2017-12-14T14:51:58.604Z,76.50
2017-12-14T14:53:51.505Z,78.11
2017-12-14T14:54:51.646Z,76.87
2017-12-14T14:56:44.331Z,76.68
2017-12-14T14:57:44.318Z,71.57
2017-12-14T14:59:37.212Z,75.36
2017-12-14T15:00:37.152Z,72.61
2017-12-14T15:02:32.044Z,74.22
2017-12-14T15:03:30.002Z,77.92
2017-12-14T15:05:23.463Z,76.50
2017-12-14T15:06:23.366Z,75.93
2017-12-14T15:08:16.281Z,75.84
2017-12-14T15:09:16.274Z,73.37
2017-12-14T15:11:09.131Z,72.33
2017-12-14T15:12:09.066Z,73.75
2017-12-14T15:14:02.016Z,71.66
2017-12-14T15:15:01.925Z,73.46